createdAt,value
2023-04-15T00:00:29.294Z,8.30
2023-04-15T00:03:30.237Z,7.90
2023-04-15T00:06:14.512Z,8.10
2023-04-15T00:08:57.318Z,7.90
2023-04-15T00:11:40.526Z,8.30
2023-04-15T00:14:23.402Z,8.30
2023-04-15T00:17:06.191Z,8.60
2023-04-15T00:19:49.048Z,9.20
2023-04-15T00:22:32.532Z,8.50
2023-04-15T00:25:15.529Z,7.50
2023-04-15T00:27:58.453Z,7.70
2023-04-15T00:30:41.792Z,8.90
2023-04-15T00:33:25.488Z,8.40
2023-04-15T00:36:08.832Z,8.30
2023-04-15T00:38:51.773Z,8.10
2023-04-15T00:41:34.627Z,8.10
2023-04-15T00:44:19.234Z,8.40
2023-04-15T00:47:05.379Z,8.00
2023-04-15T00:49:48.207Z,7.80
2023-04-15T00:52:32.762Z,8.90
2023-04-15T00:55:15.745Z,9.00
2023-04-15T00:57:58.672Z,8.90
2023-04-15T01:00:43.121Z,8.50
2023-04-15T01:03:47.529Z,8.70
2023-04-15T01:10:24.087Z,8.40
2023-04-15T01:14:07.072Z,8.00
2023-04-15T01:17:55.490Z,8.60
2023-04-15T01:21:44.017Z,9.00
2023-04-15T01:25:10.387Z,8.30
2023-04-15T01:28:54.075Z,8.90
2023-04-15T01:32:29.370Z,9.70
2023-04-15T01:35:58.163Z,8.00
2023-04-15T01:40:02.199Z,8.30
2023-04-15T01:43:39.676Z,9.40
2023-04-15T01:47:16.091Z,8.00
2023-04-15T01:51:00.239Z,8.90
2023-04-15T01:54:35.667Z,8.70
2023-04-15T01:58:30.588Z,9.50
2023-04-15T02:02:00.094Z,8.90
2023-04-15T02:05:44.832Z,8.70
2023-04-15T02:09:48.655Z,9.20
2023-04-15T02:13:10.413Z,9.10
2023-04-15T02:16:50.992Z,9.40
2023-04-15T02:20:44.789Z,9.10
2023-04-15T02:24:19.486Z,9.40
2023-04-15T02:27:59.703Z,10.00
2023-04-15T02:31:07.883Z,9.60
2023-04-15T02:34:53.402Z,8.50
2023-04-15T02:38:39.590Z,9.00
2023-04-15T02:42:15.382Z,9.40
2023-04-15T02:45:55.167Z,9.90
2023-04-15T02:49:31.112Z,9.80
2023-04-15T02:53:27.828Z,9.50
2023-04-15T02:57:24.521Z,9.30
2023-04-15T03:01:31.171Z,10.10
2023-04-15T03:05:35.155Z,9.70
2023-04-15T03:09:22.752Z,9.80
2023-04-15T03:13:16.710Z,10.70
2023-04-15T03:16:53.128Z,10.60
2023-04-15T03:20:47.382Z,10.90
2023-04-15T03:24:40.409Z,11.90
2023-04-15T03:28:24.149Z,12.30
2023-04-15T03:35:49.460Z,12.50
2023-04-15T03:39:39.358Z,13.00
2023-04-15T03:43:43.215Z,14.00
2023-04-15T03:47:26.984Z,14.70
2023-04-15T03:51:18.216Z,14.30
2023-04-15T03:55:03.678Z,14.50
2023-04-15T03:58:56.498Z,15.00
2023-04-15T04:02:25.307Z,16.30
2023-04-15T04:06:09.208Z,15.20
2023-04-15T04:10:03.914Z,16.70
2023-04-15T04:14:00.923Z,15.00
2023-04-15T04:18:03.667Z,15.30
2023-04-15T04:21:40.859Z,15.80
2023-04-15T04:25:10.681Z,16.50
2023-04-15T04:29:03.887Z,16.20
2023-04-15T04:32:50.402Z,15.20
2023-04-15T04:36:39.598Z,17.00
2023-04-15T04:40:25.221Z,16.50
2023-04-15T04:44:29.154Z,15.80
2023-04-15T04:48:05.751Z,15.60
2023-04-15T04:51:49.348Z,16.20
2023-04-15T04:55:18.212Z,16.00
2023-04-15T04:59:10.872Z,17.20
2023-04-15T05:02:54.508Z,17.20
2023-04-15T05:06:32.857Z,16.30
2023-04-15T05:10:34.196Z,17.50
2023-04-15T05:14:37.334Z,16.30
2023-04-15T05:18:29.237Z,18.00
2023-04-15T05:22:24.752Z,15.20
2023-04-15T05:26:08.821Z,16.70
2023-04-15T05:29:55.634Z,16.20
2023-04-15T05:33:14.285Z,18.30
2023-04-15T05:36:37.612Z,15.70
2023-04-15T05:40:40.088Z,17.50
2023-04-15T05:43:52.268Z,17.10
2023-04-15T05:47:15.687Z,16.70
2023-04-15T05:50:05.040Z,15.30
2023-04-15T05:53:11.052Z,17.70
2023-04-15T05:56:40.473Z,16.20
2023-04-15T05:59:42.668Z,18.30
2023-04-15T06:03:10.002Z,15.80
2023-04-15T06:06:31.920Z,16.40
2023-04-15T06:09:55.835Z,16.70
2023-04-15T06:13:17.259Z,16.90
2023-04-15T06:16:30.146Z,17.40
2023-04-15T06:19:56.639Z,16.40
2023-04-15T06:23:28.579Z,14.90
2023-04-15T06:27:01.095Z,17.30
2023-04-15T06:29:56.598Z,15.00
2023-04-15T06:33:11.480Z,15.20
2023-04-15T06:36:31.390Z,16.10
2023-04-15T06:39:55.078Z,15.80
2023-04-15T06:43:22.436Z,14.00
2023-04-15T06:46:21.599Z,13.80
2023-04-15T06:49:05.514Z,13.10
2023-04-15T06:52:20.572Z,14.60
2023-04-15T06:55:50.173Z,13.80
2023-04-15T06:59:02.364Z,13.10
2023-04-15T07:01:57.272Z,14.00
2023-04-15T07:05:14.373Z,14.00
2023-04-15T07:08:09.381Z,14.10
2023-04-15T07:10:55.385Z,13.60
2023-04-15T07:14:19.821Z,13.00
